Time;durP1;ratioP1;P1;durP2;ratioP2;P2;SDS_P1;SDS_P2;PMS_P1;PMS_P2;Temp;Humidity;BMP_temperature;BMP_pressure;BME280_temperature;BME280_humidity;BME280_pressure;Samples;Min_cycle;Max_cycle;Signal;HPM_P1;HPM_P2
2023/07/17 00:00:49;;;;;;;6.07;1.95;;;;;;;;;;6121860;23;20126;-80
2023/07/17 00:03:15;;;;;;;5.57;1.67;;;;;;;;;;6121811;23;20330;-79
2023/07/17 00:05:41;;;;;;;8.70;2.58;;;;;;;;;;6121965;23;20013;-79
2023/07/17 00:08:07;;;;;;;6.75;1.90;;;;;;;;;;6121308;23;20355;-79
2023/07/17 00:10:33;;;;;;;7.72;1.75;;;;;;;;;;6121912;23;20036;-79
2023/07/17 00:12:59;;;;;;;7.32;1.95;;;;;;;;;;6121760;23;20014;-79
2023/07/17 00:15:25;;;;;;;5.90;2.25;;;;;;;;;;6121935;23;20020;-79
2023/07/17 00:17:51;;;;;;;7.20;1.65;;;;;;;;;;6121378;23;20042;-79
2023/07/17 00:20:17;;;;;;;8.65;2.30;;;;;;;;;;6122128;23;20014;-79
2023/07/17 00:22:43;;;;;;;7.43;2.13;;;;;;;;;;6121885;23;20654;-80
2023/07/17 00:25:09;;;;;;;6.88;1.98;;;;;;;;;;6096278;23;20014;-79
2023/07/17 00:27:35;;;;;;;4.95;1.77;;;;;;;;;;6121806;23;20006;-79
2023/07/17 00:30:01;;;;;;;5.40;2.00;;;;;;;;;;6121920;23;20009;-79
2023/07/17 00:32:27;;;;;;;7.63;2.22;;;;;;;;;;6121419;23;20077;-79
2023/07/17 00:34:53;;;;;;;9.10;2.33;;;;;;;;;;6121789;23;20014;-79
2023/07/17 00:37:19;;;;;;;5.70;1.95;;;;;;;;;;6095610;23;20789;-80
2023/07/17 00:39:45;;;;;;;5.93;2.75;;;;;;;;;;6095282;23;20052;-79
2023/07/17 00:42:11;;;;;;;6.95;2.13;;;;;;;;;;6121996;23;20449;-80
2023/07/17 00:44:38;;;;;;;8.20;1.92;;;;;;;;;;6095442;23;20002;-80
2023/07/17 00:47:04;;;;;;;5.20;2.00;;;;;;;;;;6121501;23;20006;-79
2023/07/17 00:49:31;;;;;;;9.27;1.95;;;;;;;;;;6122090;23;20034;-79
2023/07/17 00:51:57;;;;;;;5.90;1.67;;;;;;;;;;6123478;23;20013;-79
2023/07/17 00:54:23;;;;;;;6.47;2.10;;;;;;;;;;6122961;23;20104;-80
2023/07/17 00:56:49;;;;;;;6.32;1.90;;;;;;;;;;6123784;23;20056;-80
2023/07/17 00:59:16;;;;;;;4.45;1.88;;;;;;;;;;6123119;23;20002;-79
2023/07/17 01:01:43;;;;;;;7.13;2.13;;;;;;;;;;6123288;23;20466;-80
2023/07/17 01:04:09;;;;;;;4.40;2.22;;;;;;;;;;6122970;23;20014;-79
2023/07/17 01:06:39;;;;;;;9.35;2.35;;;;;;;;;;6097314;23;20006;-79
2023/07/17 01:09:06;;;;;;;6.13;1.83;;;;;;;;;;6122849;23;20751;-80
2023/07/17 01:11:32;;;;;;;10.15;1.88;;;;;;;;;;6123449;23;20057;-79
2023/07/17 01:13:58;;;;;;;8.27;2.22;;;;;;;;;;6124023;23;20021;-79
2023/07/17 01:16:25;;;;;;;7.18;1.58;;;;;;;;;;6097105;23;20031;-79
2023/07/17 01:18:52;;;;;;;5.63;1.98;;;;;;;;;;6123143;23;20017;-79
2023/07/17 01:21:20;;;;;;;7.00;2.00;;;;;;;;;;6123265;23;20002;-80
2023/07/17 01:23:46;;;;;;;5.97;1.90;;;;;;;;;;6097422;23;20024;-80
2023/07/17 01:26:16;;;;;;;9.70;2.13;;;;;;;;;;6123105;23;20017;-80
2023/07/17 01:28:42;;;;;;;6.55;1.67;;;;;;;;;;6097643;23;20040;-80
2023/07/17 01:31:08;;;;;;;7.68;2.50;;;;;;;;;;6122922;23;20017;-79
2023/07/17 01:33:35;;;;;;;4.63;1.90;;;;;;;;;;6123044;23;20018;-79
2023/07/17 01:36:01;;;;;;;7.32;2.25;;;;;;;;;;6122557;23;20017;-79
2023/07/17 01:38:28;;;;;;;6.57;1.70;;;;;;;;;;6123469;23;20013;-79
2023/07/17 01:40:54;;;;;;;11.02;2.55;;;;;;;;;;6096473;23;20449;-80
2023/07/17 01:43:20;;;;;;;5.82;2.05;;;;;;;;;;6123763;23;20002;-79
2023/07/17 01:45:46;;;;;;;7.82;2.47;;;;;;;;;;6123094;23;20014;-79
2023/07/17 01:48:14;;;;;;;6.45;2.30;;;;;;;;;;6123365;23;20013;-80
2023/07/17 01:50:40;;;;;;;5.50;2.10;;;;;;;;;;6122749;23;20037;-80
2023/07/17 01:53:06;;;;;;;6.00;2.17;;;;;;;;;;6123042;23;20057;-79
2023/07/17 01:55:32;;;;;;;5.63;1.83;;;;;;;;;;6122399;23;20037;-79
2023/07/17 01:57:59;;;;;;;6.00;2.05;;;;;;;;;;6096892;23;20084;-79
2023/07/17 02:00:25;;;;;;;6.63;2.38;;;;;;;;;;6121974;23;20045;-79
2023/07/17 02:02:51;;;;;;;7.05;1.92;;;;;;;;;;6096779;23;20006;-79
2023/07/17 02:05:17;;;;;;;6.13;1.88;;;;;;;;;;6123057;23;20054;-80
2023/07/17 02:07:43;;;;;;;8.00;2.10;;;;;;;;;;6122920;23;20033;-79
2023/07/17 02:10:10;;;;;;;7.50;2.38;;;;;;;;;;6122524;23;20018;-79
2023/07/17 02:12:36;;;;;;;9.82;2.60;;;;;;;;;;6123054;23;20013;-79
2023/07/17 02:15:02;;;;;;;7.45;1.90;;;;;;;;;;6123168;23;20109;-79
2023/07/17 02:17:28;;;;;;;6.38;2.25;;;;;;;;;;6122088;23;20017;-79
2023/07/17 02:19:54;;;;;;;9.13;2.40;;;;;;;;;;6123235;23;20018;-79
2023/07/17 02:22:20;;;;;;;5.70;1.92;;;;;;;;;;6122821;23;20006;-79
2023/07/17 02:24:46;;;;;;;8.02;2.40;;;;;;;;;;6096838;23;20013;-79
2023/07/17 02:27:12;;;;;;;8.48;2.42;;;;;;;;;;6122389;23;20044;-79
2023/07/17 02:29:38;;;;;;;4.75;2.38;;;;;;;;;;6122195;23;20380;-79
2023/07/17 02:32:04;;;;;;;8.80;2.35;;;;;;;;;;6121876;23;20013;-79
2023/07/17 02:34:30;;;;;;;5.47;1.80;;;;;;;;;;6122191;23;20014;-79
2023/07/17 02:36:56;;;;;;;5.80;2.00;;;;;;;;;;6121765;23;20486;-79
2023/07/17 02:39:22;;;;;;;4.25;1.73;;;;;;;;;;6096545;23;20017;-79
2023/07/17 02:41:48;;;;;;;7.32;2.05;;;;;;;;;;6122082;23;20078;-79
2023/07/17 02:44:14;;;;;;;7.30;2.10;;;;;;;;;;6096954;23;20426;-80
2023/07/17 02:46:41;;;;;;;5.93;2.13;;;;;;;;;;6122146;23;20076;-79
2023/07/17 02:49:11;;;;;;;5.38;2.30;;;;;;;;;;6122220;23;20069;-79
2023/07/17 02:51:37;;;;;;;6.13;2.63;;;;;;;;;;6122433;23;20002;-79
2023/07/17 02:54:03;;;;;;;5.95;1.88;;;;;;;;;;6095563;23;20040;-79
2023/07/17 02:56:29;;;;;;;8.00;2.22;;;;;;;;;;6121969;23;20021;-79
2023/07/17 02:58:55;;;;;;;7.63;2.63;;;;;;;;;;6122064;23;20010;-80
2023/07/17 03:01:21;;;;;;;9.68;2.33;;;;;;;;;;6096292;23;20010;-79
2023/07/17 03:03:47;;;;;;;7.65;2.30;;;;;;;;;;6121932;23;20089;-79
2023/07/17 03:06:13;;;;;;;6.45;2.17;;;;;;;;;;6122366;23;20063;-79
2023/07/17 03:08:39;;;;;;;8.52;2.40;;;;;;;;;;6095690;23;20018;-79
2023/07/17 03:11:05;;;;;;;8.02;2.47;;;;;;;;;;6122694;23;20010;-79
2023/07/17 03:13:31;;;;;;;9.95;2.22;;;;;;;;;;6096037;23;20021;-79
2023/07/17 03:15:58;;;;;;;6.13;2.20;;;;;;;;;;6122818;23;20010;-79
2023/07/17 03:18:25;;;;;;;6.07;2.50;;;;;;;;;;6122358;23;20762;-79
2023/07/17 03:20:51;;;;;;;8.30;2.03;;;;;;;;;;6122305;23;20080;-79
2023/07/17 03:23:17;;;;;;;7.65;2.72;;;;;;;;;;6122268;23;20006;-79
2023/07/17 03:25:43;;;;;;;5.70;2.33;;;;;;;;;;6096086;23;20330;-79
2023/07/17 03:28:10;;;;;;;5.95;2.30;;;;;;;;;;6122523;23;20061;-79
2023/07/17 03:30:36;;;;;;;9.25;2.35;;;;;;;;;;6121794;23;20010;-79
2023/07/17 03:33:03;;;;;;;5.95;2.60;;;;;;;;;;6122044;23;20034;-79
2023/07/17 03:35:29;;;;;;;7.80;2.38;;;;;;;;;;6121329;23;20033;-79
2023/07/17 03:37:55;;;;;;;7.15;2.10;;;;;;;;;;6122017;23;20323;-79
2023/07/17 03:40:21;;;;;;;7.30;2.53;;;;;;;;;;6095167;23;20017;-79
2023/07/17 03:42:47;;;;;;;8.20;3.08;;;;;;;;;;6095946;23;20093;-79
2023/07/17 03:45:13;;;;;;;7.88;2.30;;;;;;;;;;6121517;23;20041;-79
2023/07/17 03:47:39;;;;;;;6.68;2.55;;;;;;;;;;6122562;23;20834;-79
2023/07/17 03:50:05;;;;;;;10.00;3.05;;;;;;;;;;6121428;23;20018;-79
2023/07/17 03:52:31;;;;;;;7.60;2.33;;;;;;;;;;6122267;23;20045;-79
2023/07/17 03:54:57;;;;;;;6.93;2.50;;;;;;;;;;6121196;23;20014;-79
2023/07/17 03:57:23;;;;;;;5.22;1.77;;;;;;;;;;6095962;23;20384;-80
2023/07/17 03:59:53;;;;;;;6.53;2.40;;;;;;;;;;6121165;23;20049;-79
2023/07/17 04:02:19;;;;;;;10.02;2.40;;;;;;;;;;6122080;23;20415;-79
2023/07/17 04:04:45;;;;;;;7.22;2.10;;;;;;;;;;6121607;23;20006;-79
2023/07/17 04:07:11;;;;;;;8.27;2.58;;;;;;;;;;6122092;23;20010;-79
2023/07/17 04:09:38;;;;;;;8.85;2.75;;;;;;;;;;6095405;23;20032;-79
2023/07/17 04:12:05;;;;;;;6.40;2.25;;;;;;;;;;6121790;23;20013;-79
2023/07/17 04:14:31;;;;;;;7.60;2.10;;;;;;;;;;6121369;23;20010;-79
2023/07/17 04:16:57;;;;;;;8.02;2.15;;;;;;;;;;6122151;23;20322;-79
2023/07/17 04:19:23;;;;;;;8.75;3.22;;;;;;;;;;6121252;23;20036;-79
2023/07/17 04:21:49;;;;;;;5.72;2.20;;;;;;;;;;6121955;23;20010;-79
2023/07/17 04:24:15;;;;;;;6.53;2.22;;;;;;;;;;6096738;23;20021;-79
2023/07/17 04:26:41;;;;;;;7.38;2.65;;;;;;;;;;6097612;23;20017;-80
2023/07/17 04:29:10;;;;;;;7.30;2.53;;;;;;;;;;6122665;23;20014;-79
2023/07/17 04:31:36;;;;;;;5.93;2.22;;;;;;;;;;6122888;23;20391;-80
2023/07/17 04:34:02;;;;;;;7.85;3.08;;;;;;;;;;6122738;23;20058;-80
2023/07/17 04:36:28;;;;;;;5.57;2.20;;;;;;;;;;6096936;23;20038;-80
2023/07/17 04:38:54;;;;;;;8.77;2.63;;;;;;;;;;6123181;23;20010;-79
2023/07/17 04:41:20;;;;;;;8.25;3.00;;;;;;;;;;6123004;23;20674;-80
2023/07/17 04:43:46;;;;;;;12.25;2.90;;;;;;;;;;6123422;23;20069;-79
2023/07/17 04:46:14;;;;;;;8.50;2.50;;;;;;;;;;6123404;23;20009;-80
2023/07/17 04:48:40;;;;;;;7.10;2.92;;;;;;;;;;6097446;23;20021;-79
2023/07/17 04:51:06;;;;;;;5.60;2.25;;;;;;;;;;6096272;23;20017;-80
2023/07/17 04:53:33;;;;;;;9.93;2.63;;;;;;;;;;6096263;23;20096;-79
2023/07/17 04:56:00;;;;;;;6.38;2.50;;;;;;;;;;6123581;23;20017;-79
2023/07/17 04:58:27;;;;;;;7.97;2.78;;;;;;;;;;6096317;23;20010;-79
2023/07/17 05:01:03;;;;;;;7.45;2.85;;;;;;;;;;6096570;23;20359;-79
2023/07/17 05:03:30;;;;;;;7.30;2.72;;;;;;;;;;6123735;23;20010;-80
2023/07/17 05:05:56;;;;;;;6.78;2.67;;;;;;;;;;6123047;23;20010;-80
2023/07/17 05:08:22;;;;;;;8.93;3.10;;;;;;;;;;6123558;23;20419;-80
2023/07/17 05:10:58;;;;;;;7.38;2.75;;;;;;;;;;6122834;23;20050;-79
2023/07/17 05:13:24;;;;;;;8.15;2.60;;;;;;;;;;6097155;23;20728;-80
2023/07/17 05:15:50;;;;;;;8.02;2.53;;;;;;;;;;6123181;23;20014;-80
2023/07/17 05:18:16;;;;;;;8.93;2.90;;;;;;;;;;6123792;23;20020;-80
2023/07/17 05:20:44;;;;;;;4.40;2.17;;;;;;;;;;6122724;23;20024;-79
2023/07/17 05:23:10;;;;;;;8.40;3.13;;;;;;;;;;6096684;23;20031;-80
2023/07/17 05:25:36;;;;;;;6.82;3.60;;;;;;;;;;6122997;23;20016;-80
2023/07/17 05:28:04;;;;;;;7.57;3.38;;;;;;;;;;6122117;23;20002;-80
2023/07/17 05:30:30;;;;;;;9.77;2.80;;;;;;;;;;6123053;23;20013;-80
2023/07/17 05:32:56;;;;;;;7.25;2.30;;;;;;;;;;6096133;23;20053;-80
2023/07/17 05:35:22;;;;;;;6.28;2.33;;;;;;;;;;6097029;23;20026;-80
2023/07/17 05:37:48;;;;;;;5.60;2.28;;;;;;;;;;6123160;23;20017;-80
2023/07/17 05:40:14;;;;;;;6.28;2.67;;;;;;;;;;6122008;23;20009;-79
2023/07/17 05:42:40;;;;;;;11.18;3.38;;;;;;;;;;6122935;23;20077;-80
2023/07/17 05:45:06;;;;;;;6.82;2.53;;;;;;;;;;6096365;23;20747;-80
2023/07/17 05:47:32;;;;;;;8.02;2.33;;;;;;;;;;6123586;23;20041;-81
2023/07/17 05:49:58;;;;;;;10.07;2.78;;;;;;;;;;6122512;23;20311;-81
2023/07/17 05:52:24;;;;;;;9.13;2.53;;;;;;;;;;6123267;23;20020;-81
2023/07/17 05:54:50;;;;;;;7.40;2.50;;;;;;;;;;6121948;23;20037;-81
2023/07/17 05:57:16;;;;;;;10.10;2.78;;;;;;;;;;6097128;23;20017;-81
2023/07/17 05:59:42;;;;;;;8.10;2.70;;;;;;;;;;6095713;23;20025;-81
2023/07/17 06:02:08;;;;;;;7.05;2.67;;;;;;;;;;6096573;23;20058;-81
2023/07/17 06:04:34;;;;;;;7.90;3.00;;;;;;;;;;6096684;23;20037;-81
2023/07/17 06:07:00;;;;;;;10.48;3.22;;;;;;;;;;6096996;23;20013;-81
2023/07/17 06:09:26;;;;;;;6.63;2.70;;;;;;;;;;6096007;23;20009;-82
2023/07/17 06:11:52;;;;;;;9.32;2.80;;;;;;;;;;6097275;23;20017;-81
2023/07/17 06:14:18;;;;;;;8.77;2.90;;;;;;;;;;6123240;23;20013;-81
2023/07/17 06:16:44;;;;;;;9.95;2.97;;;;;;;;;;6123047;23;20477;-81
2023/07/17 06:19:10;;;;;;;7.75;2.72;;;;;;;;;;6122716;23;20014;-81
2023/07/17 06:21:36;;;;;;;6.57;2.47;;;;;;;;;;6122660;23;20414;-81
2023/07/17 06:24:03;;;;;;;6.07;2.35;;;;;;;;;;6122284;23;20010;-81
2023/07/17 06:26:29;;;;;;;12.70;2.70;;;;;;;;;;6096899;23;20016;-81
2023/07/17 06:28:55;;;;;;;7.72;2.90;;;;;;;;;;6095992;23;20066;-81
2023/07/17 06:31:21;;;;;;;7.45;2.78;;;;;;;;;;6096239;23;20017;-81
2023/07/17 06:33:47;;;;;;;8.50;3.13;;;;;;;;;;6096936;23;20041;-81
2023/07/17 06:36:13;;;;;;;10.35;2.55;;;;;;;;;;6096636;23;20041;-81
2023/07/17 06:38:39;;;;;;;6.70;2.40;;;;;;;;;;6122825;23;20013;-81
2023/07/17 06:41:05;;;;;;;10.18;2.40;;;;;;;;;;6096221;23;20025;-81
2023/07/17 06:43:31;;;;;;;8.60;2.65;;;;;;;;;;6096286;23;20014;-81
2023/07/17 06:45:57;;;;;;;6.82;2.15;;;;;;;;;;6121793;23;20010;-81
2023/07/17 06:48:23;;;;;;;6.80;2.53;;;;;;;;;;6122904;23;20012;-81
2023/07/17 06:50:49;;;;;;;6.82;2.58;;;;;;;;;;6122068;23;20490;-81
2023/07/17 06:53:16;;;;;;;8.07;3.03;;;;;;;;;;6096347;23;20021;-81
2023/07/17 06:55:42;;;;;;;8.10;2.85;;;;;;;;;;6122365;23;20044;-81
2023/07/17 06:58:08;;;;;;;8.85;3.22;;;;;;;;;;6096475;23;20013;-81
2023/07/17 07:00:34;;;;;;;5.75;2.45;;;;;;;;;;6121800;23;20036;-81
2023/07/17 07:03:00;;;;;;;9.18;2.45;;;;;;;;;;6122103;23;20014;-81
2023/07/17 07:05:26;;;;;;;5.22;2.28;;;;;;;;;;6095680;23;20014;-81
2023/07/17 07:07:52;;;;;;;7.20;2.40;;;;;;;;;;6121822;23;20017;-81
2023/07/17 07:10:18;;;;;;;10.45;2.75;;;;;;;;;;6121713;23;20062;-81
2023/07/17 07:12:44;;;;;;;10.93;2.40;;;;;;;;;;6122122;23;20013;-81
2023/07/17 07:15:11;;;;;;;8.65;2.50;;;;;;;;;;6122316;23;20374;-81
2023/07/17 07:17:37;;;;;;;6.03;2.65;;;;;;;;;;6095866;23;20057;-81
2023/07/17 07:20:05;;;;;;;6.88;2.72;;;;;;;;;;6096306;23;20018;-81
2023/07/17 07:22:31;;;;;;;7.22;2.22;;;;;;;;;;6122239;23;20010;-81
2023/07/17 07:24:57;;;;;;;11.43;3.00;;;;;;;;;;6096008;23;20041;-81
2023/07/17 07:27:26;;;;;;;4.70;2.10;;;;;;;;;;6121527;23;20381;-81
2023/07/17 07:29:52;;;;;;;9.85;2.85;;;;;;;;;;6121822;23;20013;-81
2023/07/17 07:32:17;;;;;;;6.05;2.47;;;;;;;;;;6121444;23;20029;-81
2023/07/17 07:34:43;;;;;;;9.13;2.38;;;;;;;;;;6096547;23;20430;-81
2023/07/17 07:37:09;;;;;;;6.10;2.08;;;;;;;;;;6095593;23;20017;-81
2023/07/17 07:39:35;;;;;;;7.10;2.30;;;;;;;;;;6096012;23;20091;-82
2023/07/17 07:42:01;;;;;;;7.95;2.42;;;;;;;;;;6121039;23;20010;-81
2023/07/17 07:44:27;;;;;;;9.52;2.38;;;;;;;;;;6121786;23;20012;-82
2023/07/17 07:46:53;;;;;;;7.20;2.40;;;;;;;;;;6121340;23;20036;-82
2023/07/17 07:49:19;;;;;;;7.75;2.85;;;;;;;;;;6121845;23;20022;-81
2023/07/17 07:51:45;;;;;;;7.07;2.22;;;;;;;;;;6095477;23;20041;-81
2023/07/17 07:54:11;;;;;;;7.55;2.15;;;;;;;;;;6095610;23;20626;-81
2023/07/17 07:56:37;;;;;;;9.65;2.25;;;;;;;;;;6095823;23;20013;-81
2023/07/17 07:59:03;;;;;;;10.48;2.80;;;;;;;;;;6097780;23;20100;-81
2023/07/17 08:01:29;;;;;;;8.65;2.13;;;;;;;;;;6124369;23;20045;-82
2023/07/17 08:03:55;;;;;;;7.57;2.30;;;;;;;;;;6125015;23;20005;-81
2023/07/17 08:06:21;;;;;;;13.63;3.33;;;;;;;;;;6098112;23;20010;-80
2023/07/17 08:08:47;;;;;;;7.20;2.55;;;;;;;;;;6123531;23;20353;-82
2023/07/17 08:11:13;;;;;;;8.38;3.03;;;;;;;;;;6124924;23;20326;-81
2023/07/17 08:13:39;;;;;;;7.47;2.70;;;;;;;;;;6099173;23;20018;-81
2023/07/17 08:16:05;;;;;;;7.43;3.08;;;;;;;;;;6098587;23;20017;-81
2023/07/17 08:18:31;;;;;;;7.05;2.92;;;;;;;;;;6125645;23;20017;-81
2023/07/17 08:20:57;;;;;;;9.02;2.80;;;;;;;;;;6098760;23;20014;-81
2023/07/17 08:23:27;;;;;;;9.50;2.92;;;;;;;;;;6098426;23;20013;-81
2023/07/17 08:25:53;;;;;;;8.88;2.42;;;;;;;;;;6099466;23;20101;-81
2023/07/17 08:28:19;;;;;;;5.97;2.08;;;;;;;;;;6098890;23;20010;-81
2023/07/17 08:30:45;;;;;;;11.02;3.00;;;;;;;;;;6125107;23;20010;-81
2023/07/17 08:33:11;;;;;;;8.23;2.58;;;;;;;;;;6098871;23;20029;-81
2023/07/17 08:35:37;;;;;;;8.57;2.53;;;;;;;;;;6124895;23;20086;-81
2023/07/17 08:38:04;;;;;;;8.20;2.38;;;;;;;;;;6124621;23;20113;-81
2023/07/17 08:40:31;;;;;;;7.25;2.58;;;;;;;;;;6098856;23;20494;-81
2023/07/17 08:42:59;;;;;;;15.52;2.63;;;;;;;;;;6124408;23;20418;-82
2023/07/17 08:45:26;;;;;;;7.03;2.50;;;;;;;;;;6099406;23;20066;-81
2023/07/17 08:47:53;;;;;;;7.30;2.55;;;;;;;;;;6098672;23;20010;-81
2023/07/17 08:50:19;;;;;;;6.25;1.92;;;;;;;;;;6098519;23;20569;-82
2023/07/17 08:52:46;;;;;;;6.20;1.90;;;;;;;;;;6098533;23;20014;-81
2023/07/17 08:55:12;;;;;;;11.20;2.42;;;;;;;;;;6098965;23;20018;-82
2023/07/17 08:57:39;;;;;;;8.45;2.30;;;;;;;;;;6125078;23;20056;-82
2023/07/17 09:00:06;;;;;;;6.22;2.38;;;;;;;;;;6125160;23;20010;-81
2023/07/17 09:02:32;;;;;;;8.73;2.03;;;;;;;;;;6098326;23;20010;-82
2023/07/17 09:04:58;;;;;;;6.32;2.05;;;;;;;;;;6099458;23;20014;-82
2023/07/17 09:07:24;;;;;;;7.82;2.28;;;;;;;;;;6099295;23;20013;-81
2023/07/17 09:10:09;;;;;;;6.90;2.40;;;;;;;;;;6097189;23;20018;-81
2023/07/17 09:12:35;;;;;;;8.05;2.83;;;;;;;;;;6097434;23;20342;-82
2023/07/17 09:15:01;;;;;;;7.53;2.40;;;;;;;;;;6097125;23;20018;-82
2023/07/17 09:17:27;;;;;;;9.43;2.65;;;;;;;;;;6123641;23;20017;-82
2023/07/17 09:20:08;;;;;;;14.15;2.88;;;;;;;;;;6097086;23;20487;-82
2023/07/17 09:22:34;;;;;;;8.65;2.30;;;;;;;;;;6097700;23;20010;-82
2023/07/17 09:25:00;;;;;;;7.68;1.98;;;;;;;;;;6097064;23;20017;-82
2023/07/17 09:27:26;;;;;;;6.63;2.78;;;;;;;;;;6123356;23;20010;-81
2023/07/17 09:29:52;;;;;;;7.50;2.60;;;;;;;;;;6097027;23;20024;-80
2023/07/17 09:32:19;;;;;;;6.97;2.25;;;;;;;;;;6097501;23;20041;-81
2023/07/17 09:35:05;;;;;;;5.15;1.95;;;;;;;;;;6096914;23;20329;-82
2023/07/17 09:37:31;;;;;;;8.13;2.80;;;;;;;;;;6096863;23;20018;-82
2023/07/17 09:40:01;;;;;;;8.43;2.80;;;;;;;;;;6122462;23;20013;-82
2023/07/17 09:42:30;;;;;;;6.45;2.40;;;;;;;;;;6097119;23;20441;-82
2023/07/17 09:44:56;;;;;;;5.97;2.60;;;;;;;;;;6122617;23;20013;-82
2023/07/17 09:47:22;;;;;;;9.27;2.92;;;;;;;;;;6097351;23;20082;-82
2023/07/17 09:49:49;;;;;;;6.15;2.50;;;;;;;;;;6096943;23;20014;-82
2023/07/17 09:52:15;;;;;;;7.60;2.28;;;;;;;;;;6097134;23;20014;-81
2023/07/17 09:54:42;;;;;;;7.75;3.40;;;;;;;;;;6097245;23;20093;-81
2023/07/17 09:57:10;;;;;;;6.15;2.70;;;;;;;;;;6123658;23;20014;-81
2023/07/17 09:59:42;;;;;;;10.35;2.33;;;;;;;;;;6121907;23;20093;-81
2023/07/17 10:02:13;;;;;;;5.82;2.53;;;;;;;;;;6123201;23;20350;-82
2023/07/17 10:04:42;;;;;;;8.15;2.47;;;;;;;;;;6122877;23;20010;-82
2023/07/17 10:07:09;;;;;;;7.00;2.67;;;;;;;;;;6123118;23;20310;-81
2023/07/17 10:09:37;;;;;;;7.35;2.50;;;;;;;;;;6096749;23;20024;-81
2023/07/17 10:12:03;;;;;;;7.57;2.85;;;;;;;;;;6096088;23;20082;-81
2023/07/17 10:14:30;;;;;;;4.93;2.40;;;;;;;;;;6096719;23;20025;-82
2023/07/17 10:16:56;;;;;;;7.55;2.40;;;;;;;;;;6096594;23;20342;-82
2023/07/17 10:19:26;;;;;;;9.07;2.80;;;;;;;;;;6096506;23;20062;-81
2023/07/17 10:21:56;;;;;;;8.30;2.65;;;;;;;;;;6095807;23;20113;-82
2023/07/17 10:24:22;;;;;;;7.00;2.92;;;;;;;;;;6122653;23;20010;-82
2023/07/17 10:26:49;;;;;;;7.57;2.85;;;;;;;;;;6122717;23;20017;-81
2023/07/17 10:29:15;;;;;;;7.63;2.83;;;;;;;;;;6096598;23;20018;-81
2023/07/17 10:31:50;;;;;;;13.73;3.13;;;;;;;;;;6096055;23;20017;-82
2023/07/17 10:34:16;;;;;;;5.63;2.47;;;;;;;;;;6122783;23;20029;-81
2023/07/17 10:36:43;;;;;;;9.57;3.20;;;;;;;;;;6096072;23;20013;-81
2023/07/17 10:39:15;;;;;;;8.02;2.55;;;;;;;;;;6096752;23;20042;-81
2023/07/17 10:41:42;;;;;;;6.60;2.80;;;;;;;;;;6121967;23;20054;-81
2023/07/17 10:44:08;;;;;;;8.60;3.13;;;;;;;;;;6096679;23;20422;-81
2023/07/17 10:46:35;;;;;;;6.47;2.97;;;;;;;;;;6122144;23;20080;-82
2023/07/17 10:49:15;;;;;;;8.82;3.15;;;;;;;;;;6096430;23;20028;-81
2023/07/17 10:51:44;;;;;;;9.13;3.38;;;;;;;;;;6095982;23;20006;-81
2023/07/17 10:54:14;;;;;;;8.45;3.22;;;;;;;;;;6095868;23;20064;-81
2023/07/17 10:56:47;;;;;;;8.88;3.15;;;;;;;;;;6122305;23;20482;-81
2023/07/17 10:59:20;;;;;;;8.38;2.80;;;;;;;;;;6122494;23;20009;-81
2023/07/17 11:01:46;;;;;;;6.80;3.53;;;;;;;;;;6121986;23;20065;-82
2023/07/17 11:04:12;;;;;;;10.23;3.30;;;;;;;;;;6122841;23;20013;-81
2023/07/17 11:06:38;;;;;;;8.93;3.20;;;;;;;;;;6096498;23;20038;-81
2023/07/17 11:09:04;;;;;;;9.27;3.35;;;;;;;;;;6122836;23;20061;-81
2023/07/17 11:11:32;;;;;;;15.20;4.35;;;;;;;;;;6095750;23;20742;-81
2023/07/17 11:13:58;;;;;;;8.60;3.25;;;;;;;;;;6096834;23;20033;-81
2023/07/17 11:16:24;;;;;;;8.65;3.30;;;;;;;;;;6122004;23;20009;-82
2023/07/17 11:18:51;;;;;;;8.35;3.47;;;;;;;;;;6122858;23;20020;-81
2023/07/17 11:21:18;;;;;;;7.60;3.30;;;;;;;;;;6121703;23;20010;-81
2023/07/17 11:23:49;;;;;;;7.57;3.70;;;;;;;;;;6096612;23;20014;-81
2023/07/17 11:26:17;;;;;;;9.93;3.28;;;;;;;;;;6121879;23;20002;-81
2023/07/17 11:28:48;;;;;;;12.50;3.50;;;;;;;;;;6096442;23;20013;-81
2023/07/17 11:31:21;;;;;;;9.10;3.70;;;;;;;;;;6122111;23;20117;-81
2023/07/17 11:33:51;;;;;;;10.57;3.25;;;;;;;;;;6122244;23;20033;-81
2023/07/17 11:36:17;;;;;;;11.80;3.42;;;;;;;;;;6096496;23;20010;-81
2023/07/17 11:38:42;;;;;;;5.15;3.00;;;;;;;;;;6096610;23;20054;-81
2023/07/17 11:41:08;;;;;;;9.73;3.28;;;;;;;;;;6096115;23;20046;-81
2023/07/17 11:43:35;;;;;;;9.63;3.30;;;;;;;;;;6122381;23;20343;-81
2023/07/17 11:46:02;;;;;;;8.85;3.08;;;;;;;;;;6122549;23;20889;-81
2023/07/17 11:48:29;;;;;;;8.38;3.17;;;;;;;;;;6121607;23;20013;-82
2023/07/17 11:50:56;;;;;;;11.45;3.25;;;;;;;;;;6122166;23;20018;-81
2023/07/17 11:53:22;;;;;;;9.93;3.15;;;;;;;;;;6095219;23;20010;-81
2023/07/17 11:55:49;;;;;;;8.70;2.70;;;;;;;;;;6095928;23;20022;-81
2023/07/17 11:58:26;;;;;;;10.75;3.10;;;;;;;;;;6095378;23;20081;-81
2023/07/17 12:00:55;;;;;;;9.13;3.97;;;;;;;;;;6121974;23;20850;-81
2023/07/17 12:03:22;;;;;;;10.05;3.42;;;;;;;;;;6095640;23;20435;-81
2023/07/17 12:05:48;;;;;;;8.35;3.35;;;;;;;;;;6096098;23;20018;-81
2023/07/17 12:08:14;;;;;;;10.90;3.63;;;;;;;;;;6095413;23;20006;-81
2023/07/17 12:10:40;;;;;;;8.07;3.33;;;;;;;;;;6120586;23;20026;-81
2023/07/17 12:13:06;;;;;;;11.77;3.63;;;;;;;;;;6095471;23;20428;-81
2023/07/17 12:15:32;;;;;;;8.30;3.42;;;;;;;;;;6095886;23;20014;-81
2023/07/17 12:17:59;;;;;;;7.75;2.97;;;;;;;;;;6095839;23;20017;-82
2023/07/17 12:20:25;;;;;;;7.32;3.53;;;;;;;;;;6121767;23;20037;-81
2023/07/17 12:22:53;;;;;;;8.48;3.30;;;;;;;;;;6122303;23;20006;-82
2023/07/17 12:25:19;;;;;;;14.48;3.88;;;;;;;;;;6095583;23;20021;-81
2023/07/17 12:27:46;;;;;;;11.55;3.45;;;;;;;;;;6122321;23;20018;-81
2023/07/17 12:30:12;;;;;;;9.57;3.60;;;;;;;;;;6121402;23;20085;-81
2023/07/17 12:32:38;;;;;;;11.57;3.97;;;;;;;;;;6096066;23;20085;-81
2023/07/17 12:35:05;;;;;;;9.40;4.15;;;;;;;;;;6121535;23;20075;-81
2023/07/17 12:37:31;;;;;;;13.50;4.68;;;;;;;;;;6095972;23;20028;-81
2023/07/17 12:39:57;;;;;;;13.65;3.45;;;;;;;;;;6095555;23;20438;-81
2023/07/17 12:42:23;;;;;;;7.68;3.55;;;;;;;;;;6095787;23;20010;-81
2023/07/17 12:44:49;;;;;;;9.65;3.30;;;;;;;;;;6097047;23;20062;-82
2023/07/17 12:47:15;;;;;;;8.48;3.38;;;;;;;;;;6098234;23;20014;-82
2023/07/17 12:49:42;;;;;;;9.70;4.03;;;;;;;;;;6097198;23;20426;-82
2023/07/17 12:52:08;;;;;;;9.70;3.53;;;;;;;;;;6098462;23;20649;-82
2023/07/17 12:54:34;;;;;;;7.45;3.70;;;;;;;;;;6123596;23;20013;-82
2023/07/17 12:57:00;;;;;;;10.02;3.75;;;;;;;;;;6097960;23;20021;-82
2023/07/17 12:59:26;;;;;;;8.93;4.10;;;;;;;;;;6096932;23;20010;-82
2023/07/17 13:01:56;;;;;;;9.05;3.67;;;;;;;;;;6097718;23;20014;-81
2023/07/17 13:04:22;;;;;;;10.88;4.05;;;;;;;;;;6096814;23;20837;-81
2023/07/17 13:06:48;;;;;;;10.85;4.45;;;;;;;;;;6097682;23;20010;-82
2023/07/17 13:09:14;;;;;;;11.35;4.10;;;;;;;;;;6097069;23;20085;-81
2023/07/17 13:11:40;;;;;;;7.70;3.90;;;;;;;;;;6097727;23;20025;-82
2023/07/17 13:14:08;;;;;;;14.65;3.92;;;;;;;;;;6097560;23;20453;-82
2023/07/17 13:16:35;;;;;;;9.05;4.00;;;;;;;;;;6123448;23;20010;-82
2023/07/17 13:19:01;;;;;;;13.77;4.53;;;;;;;;;;6123322;23;20014;-82
2023/07/17 13:21:27;;;;;;;9.05;3.95;;;;;;;;;;6123241;23;20013;-82
2023/07/17 13:23:54;;;;;;;8.60;4.22;;;;;;;;;;6097368;23;20371;-83
2023/07/17 13:26:35;;;;;;;9.95;4.68;;;;;;;;;;6097035;23;20013;-81
2023/07/17 13:29:03;;;;;;;10.40;4.78;;;;;;;;;;6097454;23;20013;-81
2023/07/17 13:31:29;;;;;;;9.00;4.50;;;;;;;;;;6096965;23;20625;-82
2023/07/17 13:33:55;;;;;;;9.25;4.03;;;;;;;;;;6122944;23;20022;-82
2023/07/17 13:36:21;;;;;;;8.48;4.28;;;;;;;;;;6122858;23;20009;-81
2023/07/17 13:38:48;;;;;;;18.80;4.70;;;;;;;;;;6123310;23;20006;-81
2023/07/17 13:41:34;;;;;;;11.75;4.60;;;;;;;;;;6122778;23;20009;-82
2023/07/17 13:44:00;;;;;;;8.88;4.75;;;;;;;;;;6123051;23;20464;-82
2023/07/17 13:46:25;;;;;;;16.05;4.38;;;;;;;;;;6122677;23;20009;-82
2023/07/17 13:48:52;;;;;;;11.68;4.68;;;;;;;;;;6124068;23;20033;-82
2023/07/17 13:51:25;;;;;;;12.20;5.20;;;;;;;;;;6096982;23;20029;-82
2023/07/17 13:53:53;;;;;;;10.25;4.85;;;;;;;;;;6097503;23;20861;-81
2023/07/17 13:56:21;;;;;;;7.90;4.65;;;;;;;;;;6121337;23;20013;-82
2023/07/17 13:58:48;;;;;;;14.68;6.32;;;;;;;;;;6097138;23;20041;-81
2023/07/17 14:01:14;;;;;;;9.50;5.00;;;;;;;;;;6096416;23;20014;-81
2023/07/17 14:03:40;;;;;;;8.90;4.57;;;;;;;;;;6123646;23;20401;-82
2023/07/17 14:06:06;;;;;;;18.58;5.07;;;;;;;;;;6123547;23;20710;-82
2023/07/17 14:08:34;;;;;;;7.53;3.92;;;;;;;;;;6120871;23;20438;-82
2023/07/17 14:11:03;;;;;;;12.25;5.38;;;;;;;;;;6096802;23;20825;-82
2023/07/17 14:13:29;;;;;;;9.27;4.43;;;;;;;;;;6095880;23;20014;-82
2023/07/17 14:15:55;;;;;;;10.85;4.35;;;;;;;;;;6123154;23;20423;-82
2023/07/17 14:18:24;;;;;;;8.80;4.03;;;;;;;;;;6096217;23;20092;-81
2023/07/17 14:20:53;;;;;;;9.40;4.65;;;;;;;;;;6122709;23;20574;-82
2023/07/17 14:23:19;;;;;;;8.25;4.13;;;;;;;;;;6122414;23;20369;-82
2023/07/17 14:25:45;;;;;;;13.13;4.90;;;;;;;;;;6097091;23;20006;-82
2023/07/17 14:28:11;;;;;;;8.13;4.43;;;;;;;;;;6095903;23;20461;-82
2023/07/17 14:30:37;;;;;;;8.68;3.75;;;;;;;;;;6097076;23;20041;-81
2023/07/17 14:33:03;;;;;;;11.00;4.28;;;;;;;;;;6096187;23;20069;-82
2023/07/17 14:35:32;;;;;;;10.32;4.43;;;;;;;;;;6096541;23;20018;-82
2023/07/17 14:37:58;;;;;;;8.45;4.22;;;;;;;;;;6095061;23;20045;-82